sensor_id;sensor_type;location;lat;lon;timestamp;pressure;altitude;pressure_sealevel;temperature;humidity
13709;BME280;54933;51.908;7.730;2023-02-03T00:00:22;101601.75;;;21.11;67.40
13709;BME280;54933;51.908;7.730;2023-02-03T00:02:47;101607.97;;;21.11;67.31
13709;BME280;54933;51.908;7.730;2023-02-03T00:05:12;101604.66;;;21.09;67.45
13709;BME280;54933;51.908;7.730;2023-02-03T00:07:38;101605.47;;;21.10;67.49
13709;BME280;54933;51.908;7.730;2023-02-03T00:10:05;101600.91;;;21.10;67.04
13709;BME280;54933;51.908;7.730;2023-02-03T00:12:31;101589.25;;;21.10;67.43
13709;BME280;54933;51.908;7.730;2023-02-03T00:14:56;101591.75;;;21.11;67.47
13709;BME280;54933;51.908;7.730;2023-02-03T00:17:21;101599.84;;;21.11;67.50
13709;BME280;54933;51.908;7.730;2023-02-03T00:19:46;101600.91;;;21.10;67.65
13709;BME280;54933;51.908;7.730;2023-02-03T00:22:12;101597.16;;;21.11;67.25
13709;BME280;54933;51.908;7.730;2023-02-03T00:24:37;101595.50;;;21.10;67.51
13709;BME280;54933;51.908;7.730;2023-02-03T00:27:03;101593.63;;;21.11;67.40
13709;BME280;54933;51.908;7.730;2023-02-03T00:29:28;101590.09;;;21.10;67.48
13709;BME280;54933;51.908;7.730;2023-02-03T00:31:53;101597.34;;;21.10;67.52
13709;BME280;54933;51.908;7.730;2023-02-03T00:34:19;101599.25;;;21.09;67.51
13709;BME280;54933;51.908;7.730;2023-02-03T00:36:44;101595.91;;;21.07;67.46
13709;BME280;54933;51.908;7.730;2023-02-03T00:39:14;101608.38;;;21.08;67.48
13709;BME280;54933;51.908;7.730;2023-02-03T00:41:40;101604.00;;;21.07;67.11
13709;BME280;54933;51.908;7.730;2023-02-03T00:44:06;101612.09;;;21.07;67.61
13709;BME280;54933;51.908;7.730;2023-02-03T00:46:31;101608.38;;;21.08;67.55
13709;BME280;54933;51.908;7.730;2023-02-03T00:48:56;101612.97;;;21.08;67.07
13709;BME280;54933;51.908;7.730;2023-02-03T00:51:22;101608.38;;;21.08;67.67
13709;BME280;54933;51.908;7.730;2023-02-03T00:53:48;101612.97;;;21.08;67.75
13709;BME280;54933;51.908;7.730;2023-02-03T00:56:13;101620.22;;;21.07;67.61
13709;BME280;54933;51.908;7.730;2023-02-03T00:58:39;101629.97;;;21.08;67.63
13709;BME280;54933;51.908;7.730;2023-02-03T01:01:04;101628.31;;;21.07;67.32
13709;BME280;54933;51.908;7.730;2023-02-03T01:03:30;101637.44;;;21.06;67.64
13709;BME280;54933;51.908;7.730;2023-02-03T01:05:55;101644.53;;;21.07;67.56
13709;BME280;54933;51.908;7.730;2023-02-03T01:08:20;101648.25;;;21.06;67.58
13709;BME280;54933;51.908;7.730;2023-02-03T01:10:47;101659.91;;;21.07;67.56
13709;BME280;54933;51.908;7.730;2023-02-03T01:13:12;101648.25;;;21.06;67.73
13709;BME280;54933;51.908;7.730;2023-02-03T01:15:45;101631.22;;;21.06;67.82
13709;BME280;54933;51.908;7.730;2023-02-03T01:18:10;101639.97;;;21.08;67.56
13709;BME280;54933;51.908;7.730;2023-02-03T01:20:36;101648.25;;;21.06;67.75
13709;BME280;54933;51.908;7.730;2023-02-03T01:23:01;101648.25;;;21.06;67.76
13709;BME280;54933;51.908;7.730;2023-02-03T01:25:26;101642.03;;;21.06;67.88
13709;BME280;54933;51.908;7.730;2023-02-03T01:27:52;101639.13;;;21.07;67.65
13709;BME280;54933;51.908;7.730;2023-02-03T01:30:17;101641.84;;;21.07;67.81
13709;BME280;54933;51.908;7.730;2023-02-03T01:32:42;101645.75;;;21.05;67.84
13709;BME280;54933;51.908;7.730;2023-02-03T01:35:08;101634.13;;;21.04;67.76
13709;BME280;54933;51.908;7.730;2023-02-03T01:37:33;101639.53;;;21.04;67.72
13709;BME280;54933;51.908;7.730;2023-02-03T01:39:58;101643.03;;;21.05;67.80
13709;BME280;54933;51.908;7.730;2023-02-03T01:42:23;101629.53;;;21.05;67.71
13709;BME280;54933;51.908;7.730;2023-02-03T01:44:51;101618.53;;;21.06;67.93
13709;BME280;54933;51.908;7.730;2023-02-03T01:47:22;101621.22;;;21.06;67.75
13709;BME280;54933;51.908;7.730;2023-02-03T01:50:01;101614.16;;;21.05;67.66
13709;BME280;54933;51.908;7.730;2023-02-03T01:52:27;101624.31;;;21.03;67.76
13709;BME280;54933;51.908;7.730;2023-02-03T01:54:55;101622.28;;;21.05;67.70
13709;BME280;54933;51.908;7.730;2023-02-03T01:57:30;101630.38;;;21.05;67.59
13709;BME280;54933;51.908;7.730;2023-02-03T01:59:57;101632.44;;;21.03;67.94
13709;BME280;54933;51.908;7.730;2023-02-03T02:02:24;101615.22;;;21.04;67.66
13709;BME280;54933;51.908;7.730;2023-02-03T02:04:57;101604.41;;;21.04;67.81
13709;BME280;54933;51.908;7.730;2023-02-03T02:07:27;101590.88;;;21.04;68.02
13709;BME280;54933;51.908;7.730;2023-02-03T02:09:54;101574.69;;;21.04;67.82
13709;BME280;54933;51.908;7.730;2023-02-03T02:12:20;101575.69;;;21.03;67.93
13709;BME280;54933;51.908;7.730;2023-02-03T02:14:46;101572.19;;;21.03;67.73
13709;BME280;54933;51.908;7.730;2023-02-03T02:17:46;101550.56;;;21.03;68.03
13709;BME280;54933;51.908;7.730;2023-02-03T02:20:28;101562.19;;;21.03;67.70
13709;BME280;54933;51.908;7.730;2023-02-03T02:23:13;101578.59;;;21.02;68.19
13709;BME280;54933;51.908;7.730;2023-02-03T02:28:51;101545.34;;;21.01;67.91
13709;BME280;54933;51.908;7.730;2023-02-03T02:34:07;101530.16;;;21.00;67.95
13709;BME280;54933;51.908;7.730;2023-02-03T02:36:51;101528.28;;;21.01;68.08
13709;BME280;54933;51.908;7.730;2023-02-03T02:39:37;101533.91;;;20.99;67.84
13709;BME280;54933;51.908;7.730;2023-02-03T02:42:10;101535.56;;;21.00;68.07
13709;BME280;54933;51.908;7.730;2023-02-03T02:44:42;101548.06;;;21.01;67.89
13709;BME280;54933;51.908;7.730;2023-02-03T02:47:15;101546.38;;;21.00;67.93
13709;BME280;54933;51.908;7.730;2023-02-03T02:50:00;101553.63;;;21.00;68.08
13709;BME280;54933;51.908;7.730;2023-02-03T02:52:31;101554.47;;;21.00;68.10
13709;BME280;54933;51.908;7.730;2023-02-03T02:55:11;101577.94;;;21.00;67.88
13709;BME280;54933;51.908;7.730;2023-02-03T02:57:38;101578.78;;;21.00;68.03
13709;BME280;54933;51.908;7.730;2023-02-03T03:00:04;101590.66;;;20.99;68.07
13709;BME280;54933;51.908;7.730;2023-02-03T03:02:32;101595.19;;;20.99;68.13
13709;BME280;54933;51.908;7.730;2023-02-03T03:04:59;101592.50;;;20.99;68.07
13709;BME280;54933;51.908;7.730;2023-02-03T03:07:26;101585.25;;;20.99;67.87
13709;BME280;54933;51.908;7.730;2023-02-03T03:10:07;101567.97;;;21.00;67.93
13709;BME280;54933;51.908;7.730;2023-02-03T03:12:35;101559.22;;;20.98;68.05
13709;BME280;54933;51.908;7.730;2023-02-03T03:15:15;101547.41;;;20.99;68.12
13709;BME280;54933;51.908;7.730;2023-02-03T03:17:53;101549.25;;;20.99;67.87
13709;BME280;54933;51.908;7.730;2023-02-03T03:20:24;101553.81;;;20.98;68.05
13709;BME280;54933;51.908;7.730;2023-02-03T03:22:57;101564.63;;;20.98;68.09
13709;BME280;54933;51.908;7.730;2023-02-03T03:25:35;101568.19;;;20.99;68.09
13709;BME280;54933;51.908;7.730;2023-02-03T03:28:07;101561.28;;;20.96;68.09
13709;BME280;54933;51.908;7.730;2023-02-03T03:30:36;101552.16;;;20.97;68.00
13709;BME280;54933;51.908;7.730;2023-02-03T03:33:04;101562.97;;;20.97;67.99
13709;BME280;54933;51.908;7.730;2023-02-03T03:35:44;101560.28;;;20.97;68.04
13709;BME280;54933;51.908;7.730;2023-02-03T03:38:31;101550.31;;;20.98;67.98
13709;BME280;54933;51.908;7.730;2023-02-03T03:41:09;101557.56;;;20.97;67.89
13709;BME280;54933;51.908;7.730;2023-02-03T03:43:39;101561.28;;;20.96;67.83
13709;BME280;54933;51.908;7.730;2023-02-03T03:46:18;101555.88;;;20.96;68.01
13709;BME280;54933;51.908;7.730;2023-02-03T03:49:00;101542.56;;;20.95;67.94
13709;BME280;54933;51.908;7.730;2023-02-03T03:51:37;101555.88;;;20.96;68.05
13709;BME280;54933;51.908;7.730;2023-02-03T03:54:07;101550.47;;;20.96;68.05
13709;BME280;54933;51.908;7.730;2023-02-03T03:56:46;101521.78;;;20.95;68.05
13709;BME280;54933;51.908;7.730;2023-02-03T03:59:16;101538.81;;;20.96;67.80
13709;BME280;54933;51.908;7.730;2023-02-03T04:01:42;101536.31;;;20.94;67.82
13709;BME280;54933;51.908;7.730;2023-02-03T04:04:09;101542.75;;;20.93;67.87
13709;BME280;54933;51.908;7.730;2023-02-03T04:06:37;101557.94;;;20.94;67.82
13709;BME280;54933;51.908;7.730;2023-02-03T04:09:03;101550.84;;;20.93;67.80
13709;BME280;54933;51.908;7.730;2023-02-03T04:14:13;101509.50;;;20.93;68.06
13709;BME280;54933;51.908;7.730;2023-02-03T04:16:38;101512.41;;;20.91;68.01
13709;BME280;54933;51.908;7.730;2023-02-03T04:21:28;101526.13;;;20.90;67.98
13709;BME280;54933;51.908;7.730;2023-02-03T04:23:54;101518.81;;;20.90;67.49
13709;BME280;54933;51.908;7.730;2023-02-03T04:26:20;101523.41;;;20.90;67.98
13709;BME280;54933;51.908;7.730;2023-02-03T04:28:45;101538.78;;;20.89;68.05
13709;BME280;54933;51.908;7.730;2023-02-03T04:31:11;101534.22;;;20.90;67.78
13709;BME280;54933;51.908;7.730;2023-02-03T04:33:36;101532.50;;;20.82;67.96
13709;BME280;54933;51.908;7.730;2023-02-03T04:36:01;101541.59;;;20.75;67.39
13709;BME280;54933;51.908;7.730;2023-02-03T04:38:27;101538.63;;;20.70;67.55
13709;BME280;54933;51.908;7.730;2023-02-03T04:40:52;101533.19;;;20.63;67.53
13709;BME280;54933;51.908;7.730;2023-02-03T04:43:17;101539.13;;;20.52;67.43
13709;BME280;54933;51.908;7.730;2023-02-03T04:45:43;101537.81;;;20.48;67.43
13709;BME280;54933;51.908;7.730;2023-02-03T04:48:08;101530.97;;;20.46;67.75
13709;BME280;54933;51.908;7.730;2023-02-03T04:50:33;101527.03;;;20.48;67.80
13709;BME280;54933;51.908;7.730;2023-02-03T04:52:58;101525.19;;;20.49;67.97
13709;BME280;54933;51.908;7.730;2023-02-03T04:55:25;101520.41;;;20.51;68.28
13709;BME280;54933;51.908;7.730;2023-02-03T04:57:57;101513.59;;;20.55;68.20
13709;BME280;54933;51.908;7.730;2023-02-03T05:00:23;101507.34;;;20.54;68.56
13709;BME280;54933;51.908;7.730;2023-02-03T05:02:49;101494.88;;;20.53;68.54
13709;BME280;54933;51.908;7.730;2023-02-03T05:05:14;101490.78;;;20.57;68.71
13709;BME280;54933;51.908;7.730;2023-02-03T05:07:39;101503.22;;;20.58;68.67
13709;BME280;54933;51.908;7.730;2023-02-03T05:10:05;101510.94;;;20.61;68.67
13709;BME280;54933;51.908;7.730;2023-02-03T05:12:30;101493.31;;;20.65;68.71
13709;BME280;54933;51.908;7.730;2023-02-03T05:14:55;101498.72;;;20.65;68.57
13709;BME280;54933;51.908;7.730;2023-02-03T05:17:21;101487.53;;;20.68;68.58
13709;BME280;54933;51.908;7.730;2023-02-03T05:19:46;101483.38;;;20.72;68.65
13709;BME280;54933;51.908;7.730;2023-02-03T05:22:11;101486.38;;;20.56;68.32
13709;BME280;54933;51.908;7.730;2023-02-03T05:24:37;101488.59;;;20.46;67.83
13709;BME280;54933;51.908;7.730;2023-02-03T05:27:02;101494.31;;;20.37;67.81
13709;BME280;54933;51.908;7.730;2023-02-03T05:29:27;101490.78;;;20.36;67.82
13709;BME280;54933;51.908;7.730;2023-02-03T05:31:53;101488.47;;;20.33;67.97
13709;BME280;54933;51.908;7.730;2023-02-03T05:34:18;101481.88;;;20.36;68.17
13709;BME280;54933;51.908;7.730;2023-02-03T05:36:43;101479.44;;;20.41;68.43
13709;BME280;54933;51.908;7.730;2023-02-03T05:39:08;101484.03;;;20.47;68.38
13709;BME280;54933;51.908;7.730;2023-02-03T05:41:34;101488.59;;;20.46;68.62
13709;BME280;54933;51.908;7.730;2023-02-03T05:44:21;101485.69;;;20.48;68.73
13709;BME280;54933;51.908;7.730;2023-02-03T05:46:47;101477.53;;;20.41;68.43
13709;BME280;54933;51.908;7.730;2023-02-03T05:49:13;101483.09;;;20.33;68.23
13709;BME280;54933;51.908;7.730;2023-02-03T05:51:39;101483.88;;;20.27;68.05
13709;BME280;54933;51.908;7.730;2023-02-03T05:54:05;101482.22;;;20.26;68.18
13709;BME280;54933;51.908;7.730;2023-02-03T05:56:30;101496.31;;;20.28;68.13
13709;BME280;54933;51.908;7.730;2023-02-03T05:58:56;101504.22;;;20.30;68.37
13709;BME280;54933;51.908;7.730;2023-02-03T06:01:21;101497.41;;;20.34;68.22
13709;BME280;54933;51.908;7.730;2023-02-03T06:03:47;101497.22;;;20.35;68.20
13709;BME280;54933;51.908;7.730;2023-02-03T06:06:12;101495.16;;;20.37;68.40
13709;BME280;54933;51.908;7.730;2023-02-03T06:08:37;101493.38;;;20.44;68.41
13709;BME280;54933;51.908;7.730;2023-02-03T06:11:03;101491.53;;;20.51;69.01
13709;BME280;54933;51.908;7.730;2023-02-03T06:13:28;101486.78;;;20.53;69.01
13709;BME280;54933;51.908;7.730;2023-02-03T06:15:53;101484.97;;;20.60;69.31
13709;BME280;54933;51.908;7.730;2023-02-03T06:18:19;101481.88;;;20.63;69.06
13709;BME280;54933;51.908;7.730;2023-02-03T06:20:44;101491.19;;;20.61;69.10
13709;BME280;54933;51.908;7.730;2023-02-03T06:23:10;101489.59;;;20.66;68.99
13709;BME280;54933;51.908;7.730;2023-02-03T06:25:35;101491.72;;;20.22;67.86
13709;BME280;54933;51.908;7.730;2023-02-03T06:28:00;101505.97;;;20.37;67.22
13709;BME280;54933;51.908;7.730;2023-02-03T06:30:26;101489.38;;;20.40;67.79
13709;BME280;54933;51.908;7.730;2023-02-03T06:32:51;101482.03;;;20.55;68.34
13709;BME280;54933;51.908;7.730;2023-02-03T06:35:17;101485.78;;;20.12;65.08
13709;BME280;54933;51.908;7.730;2023-02-03T06:37:42;101485.28;;;20.23;65.64
13709;BME280;54933;51.908;7.730;2023-02-03T06:40:09;101486.44;;;20.35;66.30
13709;BME280;54933;51.908;7.730;2023-02-03T06:42:34;101488.59;;;20.46;66.83
13709;BME280;54933;51.908;7.730;2023-02-03T06:45:00;101488.19;;;20.49;67.11
13709;BME280;54933;51.908;7.730;2023-02-03T06:47:25;101499.00;;;20.49;66.45
13709;BME280;54933;51.908;7.730;2023-02-03T06:49:50;101497.28;;;20.42;66.64
13709;BME280;54933;51.908;7.730;2023-02-03T06:52:16;101506.22;;;20.42;66.69
13709;BME280;54933;51.908;7.730;2023-02-03T06:54:42;101501.69;;;20.49;66.79
13709;BME280;54933;51.908;7.730;2023-02-03T06:57:07;101502.34;;;20.51;67.26
13709;BME280;54933;51.908;7.730;2023-02-03T06:59:32;101504.63;;;20.54;67.24
13709;BME280;54933;51.908;7.730;2023-02-03T07:01:57;101495.13;;;20.58;67.37
13709;BME280;54933;51.908;7.730;2023-02-03T07:04:23;101494.94;;;20.60;67.27
13709;BME280;54933;51.908;7.730;2023-02-03T07:06:48;101497.84;;;20.58;67.29
13709;BME280;54933;51.908;7.730;2023-02-03T07:09:13;101493.28;;;20.59;67.46
13709;BME280;54933;51.908;7.730;2023-02-03T07:11:39;101504.88;;;20.59;67.50
13709;BME280;54933;51.908;7.730;2023-02-03T07:14:04;101502.63;;;20.63;67.63
13709;BME280;54933;51.908;7.730;2023-02-03T07:16:30;101497.03;;;20.64;67.56
13709;BME280;54933;51.908;7.730;2023-02-03T07:18:56;101491.25;;;20.67;67.68
13709;BME280;54933;51.908;7.730;2023-02-03T07:21:22;101487.53;;;20.68;67.80
13709;BME280;54933;51.908;7.730;2023-02-03T07:23:48;101490.03;;;20.70;67.75
13709;BME280;54933;51.908;7.730;2023-02-03T07:26:14;101497.94;;;20.71;68.17
13709;BME280;54933;51.908;7.730;2023-02-03T07:28:39;101501.28;;;20.73;67.89
13709;BME280;54933;51.908;7.730;2023-02-03T07:31:04;101501.28;;;20.73;68.09
13709;BME280;54933;51.908;7.730;2023-02-03T07:33:32;101502.94;;;20.74;68.01
13709;BME280;54933;51.908;7.730;2023-02-03T07:35:58;101497.09;;;20.71;67.97
13709;BME280;54933;51.908;7.730;2023-02-03T07:38:25;101494.97;;;20.66;67.80
13709;BME280;54933;51.908;7.730;2023-02-03T07:40:51;101493.22;;;20.52;67.76
13709;BME280;54933;51.908;7.730;2023-02-03T07:43:17;101495.22;;;20.44;67.64
13709;BME280;54933;51.908;7.730;2023-02-03T07:45:43;101497.22;;;20.35;67.56
13709;BME280;54933;51.908;7.730;2023-02-03T07:48:09;101498.81;;;20.30;67.63
13709;BME280;54933;51.908;7.730;2023-02-03T07:50:35;101500.50;;;20.31;67.99
13709;BME280;54933;51.908;7.730;2023-02-03T07:53:00;101494.06;;;20.32;68.04
13709;BME280;54933;51.908;7.730;2023-02-03T07:55:26;101500.31;;;20.32;68.23
13709;BME280;54933;51.908;7.730;2023-02-03T07:57:53;101498.81;;;20.30;68.53
13709;BME280;54933;51.908;7.730;2023-02-03T08:00:18;101486.97;;;20.24;68.62
13709;BME280;54933;51.908;7.730;2023-02-03T08:02:44;101495.25;;;20.23;68.55
13709;BME280;54933;51.908;7.730;2023-02-03T08:05:10;101490.44;;;20.18;68.61
13709;BME280;54933;51.908;7.730;2023-02-03T08:07:36;101497.50;;;20.19;68.38
13709;BME280;54933;51.908;7.730;2023-02-03T08:10:02;101497.50;;;20.19;68.83
13709;BME280;54933;51.908;7.730;2023-02-03T08:12:27;101495.19;;;20.16;68.79
13709;BME280;54933;51.908;7.730;2023-02-03T08:14:52;101494.16;;;20.17;68.83
13709;BME280;54933;51.908;7.730;2023-02-03T08:17:18;101495.66;;;20.19;68.90
13709;BME280;54933;51.908;7.730;2023-02-03T08:19:43;101503.28;;;20.16;68.91
13709;BME280;54933;51.908;7.730;2023-02-03T08:22:08;101499.16;;;20.20;69.17
13709;BME280;54933;51.908;7.730;2023-02-03T08:24:40;101503.34;;;20.23;69.13
13709;BME280;54933;51.908;7.730;2023-02-03T08:27:09;101505.06;;;20.30;69.57
13709;BME280;54933;51.908;7.730;2023-02-03T08:29:34;101517.56;;;20.31;69.67
13709;BME280;54933;51.908;7.730;2023-02-03T08:32:00;101500.13;;;20.34;69.59
13709;BME280;54933;51.908;7.730;2023-02-03T08:34:25;101510.31;;;20.38;69.61
13709;BME280;54933;51.908;7.730;2023-02-03T08:36:50;101501.84;;;20.41;69.62
13709;BME280;54933;51.908;7.730;2023-02-03T08:39:16;101499.78;;;20.43;69.98
13709;BME280;54933;51.908;7.730;2023-02-03T08:41:41;101513.94;;;20.45;69.99
13709;BME280;54933;51.908;7.730;2023-02-03T08:44:06;101512.50;;;20.49;70.15
13709;BME280;54933;51.908;7.730;2023-02-03T08:46:31;101503.38;;;20.50;70.10
13709;BME280;54933;51.908;7.730;2023-02-03T08:48:57;101508.38;;;20.53;70.28
13709;BME280;54933;51.908;7.730;2023-02-03T08:51:22;101503.63;;;20.55;70.14
13709;BME280;54933;51.908;7.730;2023-02-03T08:53:48;101502.59;;;20.56;70.13
13709;BME280;54933;51.908;7.730;2023-02-03T08:56:14;101489.09;;;20.56;70.13
13709;BME280;54933;51.908;7.730;2023-02-03T08:58:39;101486.00;;;20.59;70.25
13709;BME280;54933;51.908;7.730;2023-02-03T09:01:13;101478.34;;;20.63;70.22
13709;BME280;54933;51.908;7.730;2023-02-03T09:03:39;101475.44;;;20.64;70.31
13709;BME280;54933;51.908;7.730;2023-02-03T09:06:06;101490.44;;;20.67;70.16
13709;BME280;54933;51.908;7.730;2023-02-03T09:08:32;101496.38;;;20.56;70.57
13709;BME280;54933;51.908;7.730;2023-02-03T09:10:58;101494.38;;;20.43;69.66
13709;BME280;54933;51.908;7.730;2023-02-03T09:13:23;101502.22;;;20.38;69.53
13709;BME280;54933;51.908;7.730;2023-02-03T09:15:49;101488.94;;;20.37;69.44
13709;BME280;54933;51.908;7.730;2023-02-03T09:18:14;101498.53;;;20.39;69.61
13709;BME280;54933;51.908;7.730;2023-02-03T09:20:39;101493.72;;;20.41;69.71
13709;BME280;54933;51.908;7.730;2023-02-03T09:23:05;101498.13;;;20.42;69.69
13709;BME280;54933;51.908;7.730;2023-02-03T09:25:30;101511.88;;;20.47;69.78
13709;BME280;54933;51.908;7.730;2023-02-03T09:27:55;101519.78;;;20.49;70.03
13709;BME280;54933;51.908;7.730;2023-02-03T09:30:20;101513.13;;;20.51;70.10
13709;BME280;54933;51.908;7.730;2023-02-03T09:32:46;101528.94;;;20.54;69.91
13709;BME280;54933;51.908;7.730;2023-02-03T09:35:18;101520.69;;;20.56;70.19
13709;BME280;54933;51.908;7.730;2023-02-03T09:37:43;101510.69;;;20.56;69.91
13709;BME280;54933;51.908;7.730;2023-02-03T09:40:21;101522.13;;;20.58;70.34
13709;BME280;54933;51.908;7.730;2023-02-03T09:43:00;101529.00;;;20.61;70.09
13709;BME280;54933;51.908;7.730;2023-02-03T09:45:29;101517.81;;;20.64;70.11
13709;BME280;54933;51.908;7.730;2023-02-03T09:48:14;101532.34;;;20.63;70.08
13709;BME280;54933;51.908;7.730;2023-02-03T09:50:43;101514.94;;;20.65;69.86
13709;BME280;54933;51.908;7.730;2023-02-03T09:53:26;101521.97;;;20.66;69.80
13709;BME280;54933;51.908;7.730;2023-02-03T09:55:54;101522.84;;;20.67;69.80
13709;BME280;54933;51.908;7.730;2023-02-03T09:58:21;101510.78;;;20.69;69.89
13709;BME280;54933;51.908;7.730;2023-02-03T10:00:53;101502.09;;;20.74;69.64
13709;BME280;54933;51.908;7.730;2023-02-03T10:03:46;101493.78;;;20.69;69.18
13709;BME280;54933;51.908;7.730;2023-02-03T10:06:36;101510.13;;;20.67;69.29
13709;BME280;54933;51.908;7.730;2023-02-03T10:17:23;101530.38;;;20.78;69.47
13709;BME280;54933;51.908;7.730;2023-02-03T10:20:02;101535.34;;;20.74;69.04
13709;BME280;54933;51.908;7.730;2023-02-03T10:22:30;101538.69;;;20.76;69.03
13709;BME280;54933;51.908;7.730;2023-02-03T10:25:04;101527.47;;;20.79;69.10
13709;BME280;54933;51.908;7.730;2023-02-03T10:27:32;101553.09;;;20.83;69.10
13709;BME280;54933;51.908;7.730;2023-02-03T10:30:22;101548.69;;;20.82;68.97
13709;BME280;54933;51.908;7.730;2023-02-03T10:33:12;101550.00;;;20.86;68.81
13709;BME280;54933;51.908;7.730;2023-02-03T10:41:09;101549.59;;;20.89;68.69
13709;BME280;54933;51.908;7.730;2023-02-03T10:43:35;101544.19;;;20.89;68.86
13709;BME280;54933;51.908;7.730;2023-02-03T10:46:14;101551.25;;;20.90;68.72
13709;BME280;54933;51.908;7.730;2023-02-03T10:48:39;101556.25;;;20.93;68.58
13709;BME280;54933;51.908;7.730;2023-02-03T10:51:12;101564.19;;;20.95;68.95
13709;BME280;54933;51.908;7.730;2023-02-03T10:53:40;101552.53;;;20.94;68.78
13709;BME280;54933;51.908;7.730;2023-02-03T10:56:15;101554.41;;;20.94;68.75
13709;BME280;54933;51.908;7.730;2023-02-03T10:58:54;101557.94;;;20.94;68.58
13709;BME280;54933;51.908;7.730;2023-02-03T11:01:22;101561.28;;;20.96;68.44
13709;BME280;54933;51.908;7.730;2023-02-03T11:04:00;101568.38;;;20.97;68.70
13709;BME280;54933;51.908;7.730;2023-02-03T11:06:28;101568.19;;;20.99;68.54
13709;BME280;54933;51.908;7.730;2023-02-03T11:08:53;101581.69;;;20.99;68.49
13709;BME280;54933;51.908;7.730;2023-02-03T11:11:25;101582.53;;;20.99;68.54
13709;BME280;54933;51.908;7.730;2023-02-03T11:13:53;101578.78;;;21.00;68.41
13709;BME280;54933;51.908;7.730;2023-02-03T11:16:19;101574.44;;;20.99;68.44
13709;BME280;54933;51.908;7.730;2023-02-03T11:19:02;101574.16;;;20.94;67.82
13709;BME280;54933;51.908;7.730;2023-02-03T11:21:38;101579.47;;;20.81;67.73
13709;BME280;54933;51.908;7.730;2023-02-03T11:24:30;101577.66;;;20.67;67.58
13709;BME280;54933;51.908;7.730;2023-02-03T11:27:02;101578.69;;;20.66;67.80
13709;BME280;54933;51.908;7.730;2023-02-03T11:29:33;101579.34;;;20.68;68.33
13709;BME280;54933;51.908;7.730;2023-02-03T11:32:23;101584.09;;;20.66;68.48
13709;BME280;54933;51.908;7.730;2023-02-03T11:35:13;101578.00;;;20.58;68.39
13709;BME280;54933;51.908;7.730;2023-02-03T11:37:41;101575.94;;;20.60;68.38
13709;BME280;54933;51.908;7.730;2023-02-03T11:42:33;101573.84;;;20.55;68.51
13709;BME280;54933;51.908;7.730;2023-02-03T11:47:37;101585.47;;;20.56;68.69
13709;BME280;54933;51.908;7.730;2023-02-03T11:50:28;101578.84;;;20.58;68.69
13709;BME280;54933;51.908;7.730;2023-02-03T11:55:40;101590.16;;;20.68;68.79
13709;BME280;54933;51.908;7.730;2023-02-03T11:58:23;101582.31;;;20.73;68.84
13709;BME280;54933;51.908;7.730;2023-02-03T12:01:12;101575.66;;;20.76;69.10
13709;BME280;54933;51.908;7.730;2023-02-03T12:03:54;101590.66;;;20.78;69.00
13709;BME280;54933;51.908;7.730;2023-02-03T12:06:40;101586.91;;;20.79;68.88
13709;BME280;54933;51.908;7.730;2023-02-03T12:09:24;101588.19;;;20.83;68.78
13709;BME280;54933;51.908;7.730;2023-02-03T12:12:05;101595.25;;;20.84;69.01
13709;BME280;54933;51.908;7.730;2023-02-03T12:14:45;101603.63;;;20.89;68.94
13709;BME280;54933;51.908;7.730;2023-02-03T12:20:04;101609.06;;;20.96;68.84
13709;BME280;54933;51.908;7.730;2023-02-03T12:25:24;101610.38;;;21.00;68.78
13709;BME280;54933;51.908;7.730;2023-02-03T12:28:14;101612.06;;;21.01;69.06
13709;BME280;54933;51.908;7.730;2023-02-03T12:30:50;101621.00;;;21.01;68.65
13709;BME280;54933;51.908;7.730;2023-02-03T12:33:22;101626.22;;;21.03;68.54
13709;BME280;54933;51.908;7.730;2023-02-03T12:38:59;101634.13;;;21.04;68.51
13709;BME280;54933;51.908;7.730;2023-02-03T12:41:30;101629.34;;;21.06;68.68
13709;BME280;54933;51.908;7.730;2023-02-03T12:44:15;101621.22;;;21.06;68.82
13709;BME280;54933;51.908;7.730;2023-02-03T12:46:45;101619.84;;;20.89;68.21
13709;BME280;54933;51.908;7.730;2023-02-03T12:49:30;101606.91;;;20.85;67.92
13709;BME280;54933;51.908;7.730;2023-02-03T12:52:10;101618.13;;;20.82;67.99
13709;BME280;54933;51.908;7.730;2023-02-03T12:54:48;101627.16;;;20.74;67.96
13709;BME280;54933;51.908;7.730;2023-02-03T12:57:31;101632.97;;;20.71;67.82
13709;BME280;54933;51.908;7.730;2023-02-03T13:00:17;101629.03;;;20.74;67.92
13709;BME280;54933;51.908;7.730;2023-02-03T13:03:06;101627.81;;;20.76;67.99
13709;BME280;54933;51.908;7.730;2023-02-03T13:08:30;101636.63;;;20.85;68.30
13709;BME280;54933;51.908;7.730;2023-02-03T13:11:07;101633.09;;;20.84;68.61
13709;BME280;54933;51.908;7.730;2023-02-03T13:13:46;101638.09;;;20.87;68.69
13709;BME280;54933;51.908;7.730;2023-02-03T13:16:14;101629.09;;;20.80;68.36
13709;BME280;54933;51.908;7.730;2023-02-03T13:18:46;101628.41;;;20.72;68.20
13709;BME280;54933;51.908;7.730;2023-02-03T13:21:14;101631.31;;;20.70;67.94
13709;BME280;54933;51.908;7.730;2023-02-03T13:23:43;101632.50;;;20.68;68.17
13709;BME280;54933;51.908;7.730;2023-02-03T13:26:32;101635.81;;;20.63;67.98
13709;BME280;54933;51.908;7.730;2023-02-03T13:29:17;101629.16;;;20.66;68.12
13709;BME280;54933;51.908;7.730;2023-02-03T13:35:08;101625.13;;;20.76;68.32
13709;BME280;54933;51.908;7.730;2023-02-03T13:40:58;101623.13;;;20.85;68.61
13709;BME280;54933;51.908;7.730;2023-02-03T13:43:25;101627.09;;;20.89;68.67
13709;BME280;54933;51.908;7.730;2023-02-03T13:45:52;101625.88;;;20.91;68.59
13709;BME280;54933;51.908;7.730;2023-02-03T13:48:20;101632.53;;;20.95;68.63
13709;BME280;54933;51.908;7.730;2023-02-03T13:50:48;101633.41;;;20.96;68.63
13709;BME280;54933;51.908;7.730;2023-02-03T13:53:20;101645.34;;;21.01;68.60